Time;durP1;ratioP1;P1;durP2;ratioP2;P2;SDS_P1;SDS_P2;PMS_P1;PMS_P2;Temp;Humidity;BMP_temperature;BMP_pressure;BME280_temperature;BME280_humidity;BME280_pressure;Samples;Min_cycle;Max_cycle;Signal;HPM_P1;HPM_P2
2021/11/02 00:01:11;;;;;;;6.22;2.70;;;;;;;;;;5073656;28;20288;-73
2021/11/02 00:03:39;;;;;;;5.40;4.40;;;;;;;;;;5073922;28;20203;-73
2021/11/02 00:06:06;;;;;;;6.50;2.90;;;;;;;;;;5074104;28;20563;-74
2021/11/02 00:08:33;;;;;;;5.65;3.90;;;;;;;;;;5073866;28;20204;-74
2021/11/02 00:11:02;;;;;;;5.28;3.53;;;;;;;;;;5073864;28;20191;-72
2021/11/02 00:13:34;;;;;;;12.27;3.83;;;;;;;;;;5073525;28;20202;-72
2021/11/02 00:16:05;;;;;;;8.77;3.70;;;;;;;;;;5073904;28;20885;-73
2021/11/02 00:18:33;;;;;;;12.77;4.83;;;;;;;;;;5073378;28;20439;-73
2021/11/02 00:21:01;;;;;;;9.20;3.75;;;;;;;;;;5073758;28;21000;-73
2021/11/02 00:23:34;;;;;;;7.95;3.40;;;;;;;;;;5074171;28;20281;-72
2021/11/02 00:26:03;;;;;;;12.32;3.38;;;;;;;;;;5073671;28;20234;-73
2021/11/02 00:28:30;;;;;;;7.07;3.77;;;;;;;;;;5073572;28;20204;-73
2021/11/02 00:30:57;;;;;;;5.10;3.08;;;;;;;;;;5073563;28;20439;-74
2021/11/02 00:33:25;;;;;;;10.80;3.30;;;;;;;;;;5074361;28;20204;-73
2021/11/02 00:35:53;;;;;;;6.60;3.08;;;;;;;;;;5073931;28;20200;-73
2021/11/02 00:38:20;;;;;;;6.57;3.90;;;;;;;;;;5073849;28;20227;-73
2021/11/02 00:40:47;;;;;;;4.95;3.33;;;;;;;;;;5073468;28;20217;-73
2021/11/02 00:43:16;;;;;;;5.83;3.13;;;;;;;;;;5073139;28;20204;-73
2021/11/02 00:45:44;;;;;;;7.63;3.50;;;;;;;;;;5073360;28;20936;-73
2021/11/02 00:48:13;;;;;;;4.93;2.90;;;;;;;;;;5075939;28;20548;-73
2021/11/02 00:50:41;;;;;;;6.07;3.13;;;;;;;;;;5077552;28;20309;-73
2021/11/02 00:53:09;;;;;;;5.60;3.03;;;;;;;;;;5077850;28;20218;-74
2021/11/02 00:55:37;;;;;;;5.30;4.43;;;;;;;;;;5077466;28;20439;-74
2021/11/02 00:58:05;;;;;;;9.27;3.40;;;;;;;;;;5077108;28;20529;-74
2021/11/02 01:00:35;;;;;;;4.68;2.83;;;;;;;;;;5077993;28;20205;-73
2021/11/02 01:03:02;;;;;;;12.57;3.90;;;;;;;;;;5077331;28;20200;-74
2021/11/02 01:05:29;;;;;;;5.03;3.20;;;;;;;;;;5077476;28;20225;-74
2021/11/02 01:07:56;;;;;;;4.40;4.00;;;;;;;;;;5077377;28;20233;-74
2021/11/02 01:10:24;;;;;;;10.05;3.55;;;;;;;;;;5077359;28;20432;-74
2021/11/02 01:12:52;;;;;;;4.88;3.15;;;;;;;;;;5077315;28;20293;-73
2021/11/02 01:15:20;;;;;;;16.60;3.03;;;;;;;;;;5077236;28;20206;-73
2021/11/02 01:17:48;;;;;;;7.07;4.53;;;;;;;;;;5076710;28;20226;-73
2021/11/02 01:20:17;;;;;;;5.00;3.33;;;;;;;;;;5076691;28;20448;-74
2021/11/02 01:22:46;;;;;;;4.38;3.13;;;;;;;;;;5076724;28;20451;-73
2021/11/02 01:25:14;;;;;;;7.72;3.33;;;;;;;;;;5076530;28;20745;-73
2021/11/02 01:27:41;;;;;;;10.50;2.70;;;;;;;;;;5076515;28;20190;-73
2021/11/02 01:30:09;;;;;;;3.00;2.67;;;;;;;;;;5076770;28;20478;-74
2021/11/02 01:32:36;;;;;;;6.50;2.50;;;;;;;;;;5076485;28;20944;-74
2021/11/02 01:35:05;;;;;;;8.77;3.10;;;;;;;;;;5076393;28;20659;-74
2021/11/02 01:37:34;;;;;;;4.50;2.40;;;;;;;;;;5076364;28;20441;-73
2021/11/02 01:40:01;;;;;;;6.55;3.03;;;;;;;;;;5076325;28;20443;-74
2021/11/02 01:42:28;;;;;;;4.03;2.77;;;;;;;;;;5076575;28;20556;-73
2021/11/02 01:44:56;;;;;;;8.63;2.73;;;;;;;;;;5076475;28;20495;-74
2021/11/02 01:47:24;;;;;;;7.57;2.90;;;;;;;;;;5076501;28;20537;-74
2021/11/02 01:49:51;;;;;;;4.85;3.13;;;;;;;;;;5076451;28;20291;-73
2021/11/02 01:52:20;;;;;;;6.27;2.33;;;;;;;;;;5076256;28;20222;-74
2021/11/02 01:54:47;;;;;;;4.40;3.50;;;;;;;;;;5076386;28;20482;-74
2021/11/02 01:57:15;;;;;;;4.87;3.03;;;;;;;;;;5076312;28;20490;-74
2021/11/02 01:59:42;;;;;;;10.23;3.17;;;;;;;;;;5075531;28;20484;-74
2021/11/02 02:02:12;;;;;;;6.27;3.37;;;;;;;;;;5076778;28;20441;-74
2021/11/02 02:04:47;;;;;;;5.13;2.70;;;;;;;;;;5076151;28;20479;-74
2021/11/02 02:07:18;;;;;;;4.60;3.13;;;;;;;;;;5076528;28;20432;-73
2021/11/02 02:09:48;;;;;;;6.73;2.33;;;;;;;;;;5075628;28;20435;-74
2021/11/02 02:12:27;;;;;;;8.33;3.23;;;;;;;;;;5075712;28;20522;-73
2021/11/02 02:15:00;;;;;;;4.07;2.70;;;;;;;;;;5074847;28;20440;-73
2021/11/02 02:17:31;;;;;;;4.77;2.70;;;;;;;;;;5076462;28;20433;-73
2021/11/02 02:20:01;;;;;;;8.70;2.90;;;;;;;;;;5076149;28;20432;-73
2021/11/02 02:22:58;;;;;;;3.58;2.97;;;;;;;;;;5076399;28;20451;-74
2021/11/02 02:25:37;;;;;;;4.70;2.95;;;;;;;;;;5013985;28;20247;-74
2021/11/02 02:28:08;;;;;;;12.70;3.67;;;;;;;;;;5066003;28;20286;-74
2021/11/02 02:30:38;;;;;;;4.35;2.85;;;;;;;;;;5075949;28;20436;-74
2021/11/02 02:33:06;;;;;;;4.93;3.00;;;;;;;;;;5076175;28;20189;-73
2021/11/02 02:35:34;;;;;;;5.47;2.95;;;;;;;;;;5075356;28;20623;-71
2021/11/02 02:38:01;;;;;;;6.18;3.08;;;;;;;;;;5075821;28;20217;-71
2021/11/02 02:40:28;;;;;;;9.70;3.60;;;;;;;;;;5076102;28;20205;-71
2021/11/02 02:42:56;;;;;;;7.57;3.60;;;;;;;;;;5075168;28;20444;-71
2021/11/02 02:45:26;;;;;;;7.20;4.50;;;;;;;;;;5075032;28;20228;-72
2021/11/02 02:47:53;;;;;;;6.43;3.63;;;;;;;;;;5076241;28;20198;-71
2021/11/02 02:50:22;;;;;;;10.20;3.50;;;;;;;;;;5075012;28;20445;-71
2021/11/02 02:52:50;;;;;;;6.63;3.40;;;;;;;;;;5075200;28;20233;-71
2021/11/02 02:55:18;;;;;;;7.00;3.33;;;;;;;;;;5075262;28;20491;-71
2021/11/02 02:57:46;;;;;;;3.97;2.80;;;;;;;;;;5075202;28;20466;-72
2021/11/02 03:00:14;;;;;;;6.70;3.90;;;;;;;;;;5074840;28;20529;-71
2021/11/02 03:02:43;;;;;;;4.13;3.47;;;;;;;;;;5074754;28;20446;-72
2021/11/02 03:05:12;;;;;;;4.72;4.25;;;;;;;;;;5074964;28;20488;-72
2021/11/02 03:07:39;;;;;;;5.30;3.43;;;;;;;;;;5074622;28;20193;-71
2021/11/02 03:10:08;;;;;;;5.30;3.63;;;;;;;;;;5074098;28;20577;-72
2021/11/02 03:12:37;;;;;;;8.40;3.60;;;;;;;;;;5074514;28;20447;-72
2021/11/02 03:15:19;;;;;;;4.72;3.78;;;;;;;;;;5074536;28;20441;-73
2021/11/02 03:17:51;;;;;;;9.38;4.22;;;;;;;;;;5075532;28;20551;-74
2021/11/02 03:48:17;;;;;;;9.63;4.65;;;;;;;;;;5074089;28;20419;-73
2021/11/02 03:51:02;;;;;;;8.50;4.30;;;;;;;;;;5074236;28;20216;-73
2021/11/02 03:56:23;;;;;;;8.00;4.10;;;;;;;;;;5073957;28;20220;-74
2021/11/02 03:59:08;;;;;;;4.90;3.77;;;;;;;;;;5073801;28;20185;-74
2021/11/02 04:24:07;;;;;;;12.90;4.53;;;;;;;;;;5073517;28;20188;-72
2021/11/02 04:35:22;;;;;;;6.10;3.85;;;;;;;;;;5073028;28;20194;-73
2021/11/02 05:09:45;;;;;;;7.10;4.95;;;;;;;;;;5068283;28;20432;-74
2021/11/02 05:46:35;;;;;;;6.75;4.80;;;;;;;;;;5073161;28;20235;-73
2021/11/02 05:48:26;;;;;;;7.65;4.32;;;;;;;;;;5075681;28;20181;-78
2021/11/02 05:51:22;;;;;;;5.13;4.15;;;;;;;;;;5076136;28;20216;-76
2021/11/02 05:56:48;;;;;;;7.78;3.80;;;;;;;;;;5076469;28;20189;-76
2021/11/02 05:59:28;;;;;;;5.43;3.90;;;;;;;;;;5076011;28;20255;-75
2021/11/02 06:02:04;;;;;;;9.07;3.75;;;;;;;;;;5076740;28;20190;-76
2021/11/02 06:04:55;;;;;;;10.75;4.97;;;;;;;;;;5075703;28;20220;-75
2021/11/02 06:07:41;;;;;;;7.15;3.97;;;;;;;;;;5075819;28;20206;-75
2021/11/02 06:10:34;;;;;;;7.63;4.45;;;;;;;;;;5076005;28;20229;-76
2021/11/02 06:29:42;;;;;;;8.73;4.75;;;;;;;;;;5074810;28;20185;-73
2021/11/02 06:32:18;;;;;;;7.40;5.07;;;;;;;;;;5074564;28;20197;-78
2021/11/02 06:34:59;;;;;;;13.93;4.90;;;;;;;;;;5075205;28;20214;-76
2021/11/02 06:37:43;;;;;;;8.20;4.90;;;;;;;;;;5076007;28;20588;-77
2021/11/02 06:41:47;;;;;;;9.40;4.68;;;;;;;;;;5075433;28;20214;-76
2021/11/02 06:43:33;;;;;;;6.65;5.05;;;;;;;;;;5075208;28;20206;-76
2021/11/02 06:46:29;;;;;;;6.75;5.75;;;;;;;;;;5074108;28;20221;-76
2021/11/02 06:49:10;;;;;;;10.25;5.72;;;;;;;;;;5075308;28;20200;-77
2021/11/02 06:51:53;;;;;;;8.63;5.10;;;;;;;;;;5074761;28;20285;-76
2021/11/02 06:54:38;;;;;;;9.85;5.25;;;;;;;;;;5075259;28;20239;-77
2021/11/02 07:19:38;;;;;;;8.25;5.03;;;;;;;;;;5074503;28;20180;-76
2021/11/02 07:22:21;;;;;;;10.82;4.85;;;;;;;;;;5074253;28;20226;-76
2021/11/02 07:25:03;;;;;;;6.57;5.53;;;;;;;;;;5074873;28;20223;-76
2021/11/02 07:27:53;;;;;;;15.27;5.32;;;;;;;;;;5074118;28;20208;-76
2021/11/02 08:45:30;;;;;;;12.30;5.10;;;;;;;;;;5073341;28;20390;-78
2021/11/02 08:48:00;;;;;;;5.53;4.10;;;;;;;;;;5073341;28;20245;-77
2021/11/02 08:50:33;;;;;;;12.00;4.83;;;;;;;;;;5074033;28;20203;-76
2021/11/02 08:53:02;;;;;;;7.23;4.67;;;;;;;;;;5072709;28;20479;-77
2021/11/02 08:55:29;;;;;;;6.43;4.30;;;;;;;;;;5073184;28;20443;-77
2021/11/02 08:57:57;;;;;;;13.73;5.43;;;;;;;;;;5072887;28;20531;-76
2021/11/02 09:00:24;;;;;;;53.53;8.57;;;;;;;;;;5072894;28;20440;-77
2021/11/02 09:02:53;;;;;;;15.10;5.60;;;;;;;;;;5072837;28;20233;-76
2021/11/02 09:05:22;;;;;;;9.97;4.73;;;;;;;;;;5072743;28;20922;-76
2021/11/02 09:07:51;;;;;;;12.10;4.80;;;;;;;;;;5073327;28;20833;-77
2021/11/02 09:10:19;;;;;;;12.93;4.90;;;;;;;;;;5077330;28;20429;-77
2021/11/02 09:12:49;;;;;;;10.07;4.50;;;;;;;;;;5077138;28;20216;-76
2021/11/02 09:15:17;;;;;;;6.70;4.23;;;;;;;;;;5077419;28;20447;-76
2021/11/02 09:17:45;;;;;;;5.10;4.40;;;;;;;;;;5077062;28;20523;-76
2021/11/02 09:20:13;;;;;;;6.40;5.30;;;;;;;;;;5076917;28;20434;-76
2021/11/02 09:22:41;;;;;;;9.40;4.80;;;;;;;;;;5076552;28;20448;-77
2021/11/02 09:25:11;;;;;;;5.47;4.43;;;;;;;;;;5076908;28;20508;-77
2021/11/02 09:27:38;;;;;;;7.13;4.00;;;;;;;;;;5076318;28;20502;-76
2021/11/02 09:30:06;;;;;;;4.60;3.60;;;;;;;;;;5076408;28;20530;-76
2021/11/02 09:32:34;;;;;;;7.07;3.87;;;;;;;;;;5076162;28;20194;-77
2021/11/02 09:35:01;;;;;;;33.50;5.50;;;;;;;;;;5075880;28;20526;-76
2021/11/02 09:37:32;;;;;;;6.47;3.87;;;;;;;;;;5076197;28;20447;-76
2021/11/02 09:40:02;;;;;;;4.77;3.90;;;;;;;;;;5076737;28;20786;-76
2021/11/02 09:42:51;;;;;;;6.93;4.50;;;;;;;;;;5076103;28;20447;-76
2021/11/02 09:45:37;;;;;;;4.60;4.20;;;;;;;;;;5076726;28;20424;-76
2021/11/02 09:48:21;;;;;;;4.53;3.80;;;;;;;;;;5076382;28;20833;-76
2021/11/02 09:51:15;;;;;;;4.53;3.80;;;;;;;;;;5076136;28;20425;-76
2021/11/02 09:54:02;;;;;;;4.00;3.60;;;;;;;;;;5076493;28;20501;-76
2021/11/02 09:56:37;;;;;;;6.20;4.43;;;;;;;;;;5067083;28;20546;-76
2021/11/02 09:59:23;;;;;;;4.03;3.70;;;;;;;;;;5075891;28;20464;-76
2021/11/02 10:01:51;;;;;;;6.80;3.90;;;;;;;;;;5076613;28;20425;-76
2021/11/02 10:04:51;;;;;;;7.40;3.83;;;;;;;;;;5075798;28;20953;-76
2021/11/02 10:07:41;;;;;;;6.70;4.20;;;;;;;;;;5074987;28;20879;-77
2021/11/02 10:10:12;;;;;;;8.33;3.57;;;;;;;;;;5075956;28;20447;-76
2021/11/02 10:12:43;;;;;;;9.83;3.33;;;;;;;;;;5076267;28;20515;-76
2021/11/02 10:15:27;;;;;;;4.30;3.90;;;;;;;;;;5075900;28;20442;-77
2021/11/02 10:18:10;;;;;;;5.53;3.97;;;;;;;;;;5074513;28;20850;-76
2021/11/02 10:20:57;;;;;;;3.30;3.00;;;;;;;;;;5075806;28;20787;-76
2021/11/02 10:23:32;;;;;;;5.93;3.63;;;;;;;;;;5075555;28;20924;-76
2021/11/02 10:26:16;;;;;;;3.43;3.13;;;;;;;;;;5075440;28;20424;-76
2021/11/02 10:29:12;;;;;;;6.63;3.37;;;;;;;;;;5075383;28;20425;-76
2021/11/02 10:31:47;;;;;;;7.47;3.67;;;;;;;;;;5075454;28;20460;-76
2021/11/02 10:34:24;;;;;;;6.77;2.90;;;;;;;;;;5076107;28;20420;-76
2021/11/02 10:36:53;;;;;;;4.60;3.43;;;;;;;;;;5076201;28;20905;-77
2021/11/02 10:39:26;;;;;;;3.80;3.13;;;;;;;;;;5076128;28;20456;-76
2021/11/02 10:41:59;;;;;;;4.13;2.80;;;;;;;;;;5075770;28;20471;-76
2021/11/02 10:44:29;;;;;;;3.73;3.13;;;;;;;;;;5074962;28;20436;-76
2021/11/02 10:47:04;;;;;;;7.40;3.20;;;;;;;;;;5075581;28;20484;-77
2021/11/02 10:49:42;;;;;;;8.83;2.90;;;;;;;;;;5075581;28;20427;-76
2021/11/02 10:52:09;;;;;;;6.60;2.87;;;;;;;;;;5075600;28;20507;-77
2021/11/02 10:54:47;;;;;;;3.33;2.40;;;;;;;;;;5074815;28;21006;-76
2021/11/02 10:57:33;;;;;;;3.60;2.60;;;;;;;;;;5075320;28;20504;-76
2021/11/02 11:00:02;;;;;;;7.73;3.07;;;;;;;;;;5065155;28;20941;-76
2021/11/02 11:02:31;;;;;;;3.73;2.93;;;;;;;;;;5075565;28;20440;-76
2021/11/02 11:04:59;;;;;;;6.33;2.87;;;;;;;;;;5074668;28;20441;-77
2021/11/02 11:07:28;;;;;;;3.67;3.13;;;;;;;;;;5074541;28;20475;-78
2021/11/02 11:09:55;;;;;;;2.83;2.50;;;;;;;;;;5075233;28;20467;-77
2021/11/02 11:12:23;;;;;;;6.13;3.03;;;;;;;;;;5074834;28;20737;-76
2021/11/02 11:14:55;;;;;;;6.60;2.80;;;;;;;;;;5074789;28;20535;-77
2021/11/02 11:17:28;;;;;;;4.13;2.53;;;;;;;;;;5074514;28;20433;-77
2021/11/02 11:20:06;;;;;;;3.67;3.10;;;;;;;;;;5074420;28;20424;-77
2021/11/02 11:22:37;;;;;;;3.13;2.70;;;;;;;;;;5074536;28;20532;-77
2021/11/02 11:25:05;;;;;;;6.87;3.17;;;;;;;;;;5074647;28;20441;-76
2021/11/02 11:27:33;;;;;;;4.70;2.70;;;;;;;;;;5074260;28;20483;-76
2021/11/02 11:30:05;;;;;;;2.73;2.13;;;;;;;;;;5074984;28;20440;-76
2021/11/02 11:32:34;;;;;;;5.93;2.17;;;;;;;;;;5073918;28;20522;-77
2021/11/02 11:35:03;;;;;;;7.17;2.43;;;;;;;;;;5074342;28;20488;-77
2021/11/02 11:37:32;;;;;;;3.37;2.37;;;;;;;;;;5074025;28;20576;-78
2021/11/02 11:40:01;;;;;;;2.80;2.40;;;;;;;;;;5074016;28;20448;-76
2021/11/02 11:42:31;;;;;;;7.63;2.53;;;;;;;;;;5074273;28;20535;-77
2021/11/02 11:45:02;;;;;;;3.00;2.00;;;;;;;;;;5074484;28;20490;-76
2021/11/02 11:47:29;;;;;;;3.80;2.00;;;;;;;;;;5074383;28;20522;-76
2021/11/02 11:49:57;;;;;;;3.67;2.23;;;;;;;;;;5074142;28;20451;-76
2021/11/02 11:52:26;;;;;;;2.93;2.10;;;;;;;;;;5073915;28;20472;-76
2021/11/02 11:54:55;;;;;;;6.20;2.57;;;;;;;;;;5074323;28;20532;-76
2021/11/02 11:57:28;;;;;;;5.83;2.40;;;;;;;;;;5073924;28;20445;-76
2021/11/02 11:59:59;;;;;;;6.10;3.17;;;;;;;;;;5074487;28;20760;-76
2021/11/02 12:02:29;;;;;;;5.90;2.53;;;;;;;;;;5074458;28;20430;-76
2021/11/02 12:04:59;;;;;;;2.83;2.47;;;;;;;;;;5073418;28;20436;-77
2021/11/02 12:07:32;;;;;;;8.93;2.80;;;;;;;;;;5073739;28;20811;-77
2021/11/02 12:10:04;;;;;;;6.67;2.30;;;;;;;;;;5074447;28;20787;-77
2021/11/02 12:12:32;;;;;;;5.43;2.40;;;;;;;;;;5073842;28;20545;-77
2021/11/02 12:15:01;;;;;;;3.70;2.07;;;;;;;;;;5073494;28;20950;-77
2021/11/02 12:17:31;;;;;;;3.00;2.00;;;;;;;;;;5074023;28;20445;-76
2021/11/02 12:20:04;;;;;;;6.90;2.30;;;;;;;;;;5073559;28;20862;-76
2021/11/02 12:22:42;;;;;;;3.03;2.67;;;;;;;;;;5073805;28;20832;-76
2021/11/02 12:25:13;;;;;;;6.00;2.17;;;;;;;;;;5073628;28;20507;-76
2021/11/02 12:27:41;;;;;;;5.30;2.60;;;;;;;;;;5074316;28;20481;-76
2021/11/02 12:30:09;;;;;;;4.63;2.17;;;;;;;;;;5073662;28;20437;-76
2021/11/02 12:32:39;;;;;;;7.83;2.20;;;;;;;;;;5073234;28;20441;-76
2021/11/02 12:35:14;;;;;;;3.00;2.10;;;;;;;;;;5073726;28;20490;-77
2021/11/02 12:37:52;;;;;;;5.70;2.30;;;;;;;;;;5073442;28;20513;-76
2021/11/02 12:40:20;;;;;;;2.60;2.30;;;;;;;;;;5073035;28;20429;-76
2021/11/02 12:42:47;;;;;;;5.80;2.40;;;;;;;;;;5073053;28;20471;-76
2021/11/02 12:45:14;;;;;;;2.80;2.40;;;;;;;;;;5073397;28;20441;-76
2021/11/02 12:47:42;;;;;;;2.20;2.10;;;;;;;;;;5073584;28;20529;-77
2021/11/02 12:50:09;;;;;;;9.47;3.97;;;;;;;;;;5072964;28;20447;-76
2021/11/02 12:52:38;;;;;;;2.90;2.70;;;;;;;;;;5073298;28;20507;-77
2021/11/02 12:55:09;;;;;;;5.27;2.43;;;;;;;;;;5073270;28;20436;-77
2021/11/02 12:57:37;;;;;;;4.60;2.87;;;;;;;;;;5072938;28;20468;-76
2021/11/02 13:00:07;;;;;;;5.30;2.80;;;;;;;;;;5073743;28;20448;-77
2021/11/02 13:02:35;;;;;;;7.97;3.10;;;;;;;;;;5072917;28;20444;-77
2021/11/02 13:05:03;;;;;;;3.57;3.00;;;;;;;;;;5072730;28;20936;-74
2021/11/02 13:07:40;;;;;;;3.30;2.30;;;;;;;;;;5072832;28;20508;-69
2021/11/02 13:10:18;;;;;;;4.70;3.00;;;;;;;;;;5073210;28;20990;-79
2021/11/02 13:12:52;;;;;;;5.13;3.13;;;;;;;;;;5073141;28;20436;-76
2021/11/02 13:15:20;;;;;;;3.23;2.43;;;;;;;;;;5073159;28;20417;-74
2021/11/02 13:17:50;;;;;;;6.57;3.80;;;;;;;;;;5073106;28;20535;-77
2021/11/02 13:20:28;;;;;;;3.30;2.50;;;;;;;;;;5072737;28;20432;-74
2021/11/02 13:22:56;;;;;;;3.87;2.93;;;;;;;;;;5072574;28;20483;-78
2021/11/02 13:25:35;;;;;;;5.67;2.70;;;;;;;;;;5072473;28;20448;-77
2021/11/02 13:28:03;;;;;;;5.67;2.73;;;;;;;;;;5073310;28;20465;-76
2021/11/02 13:30:34;;;;;;;3.07;2.87;;;;;;;;;;5072613;28;20875;-77
2021/11/02 13:33:06;;;;;;;2.60;2.40;;;;;;;;;;5072935;28;20436;-77
2021/11/02 13:35:43;;;;;;;3.27;2.63;;;;;;;;;;5073299;28;20949;-77
2021/11/02 13:38:26;;;;;;;3.00;2.80;;;;;;;;;;5070782;28;20440;-75
2021/11/02 13:40:56;;;;;;;3.13;2.20;;;;;;;;;;5072192;28;20447;-77
2021/11/02 13:43:30;;;;;;;2.40;2.20;;;;;;;;;;5072843;28;20884;-76
2021/11/02 13:45:58;;;;;;;4.20;2.57;;;;;;;;;;5072503;28;20444;-77
2021/11/02 13:48:26;;;;;;;2.53;2.13;;;;;;;;;;5072382;28;20468;-76
2021/11/02 13:50:54;;;;;;;3.00;2.80;;;;;;;;;;5072592;28;20468;-75
2021/11/02 13:53:22;;;;;;;2.57;2.27;;;;;;;;;;5072510;28;21042;-76
2021/11/02 13:55:50;;;;;;;3.90;2.47;;;;;;;;;;5075659;28;20786;-76
2021/11/02 13:58:18;;;;;;;4.90;2.43;;;;;;;;;;5076270;28;20775;-75
2021/11/02 14:00:46;;;;;;;3.20;2.50;;;;;;;;;;5075923;28;20437;-76
2021/11/02 14:03:15;;;;;;;5.37;3.00;;;;;;;;;;5076147;28;20440;-76
2021/11/02 14:05:44;;;;;;;2.93;2.63;;;;;;;;;;5075837;28;20539;-76
2021/11/02 14:08:11;;;;;;;3.67;2.93;;;;;;;;;;5074556;28;20488;-77
2021/11/02 14:10:39;;;;;;;3.10;2.23;;;;;;;;;;5075635;28;20440;-77
2021/11/02 14:13:06;;;;;;;6.20;2.30;;;;;;;;;;5076889;28;20451;-77
2021/11/02 14:15:40;;;;;;;7.97;3.13;;;;;;;;;;5075670;28;20448;-77
2021/11/02 14:18:09;;;;;;;6.00;2.43;;;;;;;;;;5075263;28;20432;-76
2021/11/02 14:20:37;;;;;;;3.10;2.80;;;;;;;;;;5075736;28;20506;-77
2021/11/02 14:23:05;;;;;;;3.90;2.73;;;;;;;;;;5075909;28;20455;-76
2021/11/02 14:25:33;;;;;;;3.40;2.30;;;;;;;;;;5075391;28;20467;-77
2021/11/02 14:28:01;;;;;;;6.23;2.47;;;;;;;;;;5075495;28;20558;-77
2021/11/02 14:30:39;;;;;;;3.27;2.20;;;;;;;;;;5075226;28;20448;-77
2021/11/02 14:33:06;;;;;;;4.73;2.20;;;;;;;;;;5075984;28;20435;-78
2021/11/02 14:35:51;;;;;;;6.00;2.60;;;;;;;;;;5075721;28;20446;-76
2021/11/02 14:38:19;;;;;;;3.77;2.50;;;;;;;;;;5075884;28;20455;-77
2021/11/02 14:40:49;;;;;;;2.87;2.40;;;;;;;;;;5073309;28;20437;-78
2021/11/02 14:43:22;;;;;;;4.17;2.17;;;;;;;;;;5074974;28;20443;-77
2021/11/02 14:45:53;;;;;;;8.07;2.60;;;;;;;;;;5075025;28;20452;-78
2021/11/02 14:48:32;;;;;;;5.30;2.17;;;;;;;;;;5075520;28;20457;-77
2021/11/02 14:50:59;;;;;;;6.13;2.40;;;;;;;;;;5074828;28;20429;-77
2021/11/02 14:53:31;;;;;;;4.37;2.40;;;;;;;;;;5074242;28;20490;-76
2021/11/02 14:55:59;;;;;;;4.30;2.70;;;;;;;;;;5074762;28;20444;-77
2021/11/02 14:58:49;;;;;;;2.77;2.10;;;;;;;;;;5075163;28;20436;-75
2021/11/02 15:01:18;;;;;;;2.70;2.40;;;;;;;;;;5074642;28;20433;-77
2021/11/02 15:03:51;;;;;;;8.60;2.93;;;;;;;;;;5074840;28;20523;-79
2021/11/02 15:06:18;;;;;;;3.10;2.10;;;;;;;;;;5074004;28;20439;-78
2021/11/02 15:08:46;;;;;;;5.90;2.37;;;;;;;;;;5074440;28;20482;-77
2021/11/02 15:11:14;;;;;;;6.80;3.03;;;;;;;;;;5073191;28;20866;-77
2021/11/02 15:13:47;;;;;;;2.63;2.37;;;;;;;;;;5074490;28;20507;-77
2021/11/02 15:16:14;;;;;;;6.07;2.60;;;;;;;;;;5074839;28;20827;-75
2021/11/02 15:18:43;;;;;;;6.80;2.90;;;;;;;;;;5074401;28;20448;-77
2021/11/02 15:21:10;;;;;;;2.93;2.63;;;;;;;;;;5073374;28;20452;-77
2021/11/02 15:23:42;;;;;;;5.43;2.97;;;;;;;;;;5073522;28;20999;-76
2021/11/02 15:26:10;;;;;;;4.90;3.30;;;;;;;;;;5074315;28;20456;-78
2021/11/02 15:28:41;;;;;;;3.60;2.50;;;;;;;;;;5074529;28;20562;-77
2021/11/02 15:31:14;;;;;;;4.70;3.50;;;;;;;;;;5074015;28;20797;-77
2021/11/02 15:33:42;;;;;;;7.83;4.10;;;;;;;;;;5074970;28;20443;-77
2021/11/02 15:36:14;;;;;;;38.57;7.20;;;;;;;;;;5074348;28;20808;-77
2021/11/02 15:38:42;;;;;;;8.63;4.20;;;;;;;;;;5074696;28;20924;-77
2021/11/02 15:41:20;;;;;;;11.27;4.70;;;;;;;;;;5072266;28;20447;-78
2021/11/02 15:43:52;;;;;;;8.40;4.40;;;;;;;;;;5073622;28;20432;-77
2021/11/02 15:46:21;;;;;;;11.70;3.80;;;;;;;;;;5074091;28;20522;-77
2021/11/02 15:48:49;;;;;;;6.90;3.30;;;;;;;;;;5074088;28;20567;-77
2021/11/02 15:51:19;;;;;;;7.03;3.40;;;;;;;;;;5073843;28;20452;-77
2021/11/02 15:53:46;;;;;;;6.33;2.73;;;;;;;;;;5073396;28;20424;-77
2021/11/02 15:56:14;;;;;;;11.03;6.53;;;;;;;;;;5073540;28;20535;-77
2021/11/02 15:58:41;;;;;;;7.33;4.43;;;;;;;;;;5073932;28;20540;-77
2021/11/02 16:01:08;;;;;;;5.60;3.40;;;;;;;;;;5073819;28;20980;-75
2021/11/02 16:03:38;;;;;;;7.33;3.43;;;;;;;;;;5073420;28;20527;-76
2021/11/02 16:06:06;;;;;;;7.13;3.30;;;;;;;;;;5073611;28;20420;-77
2021/11/02 16:08:35;;;;;;;3.80;3.23;;;;;;;;;;5072981;28;21014;-77
2021/11/02 16:11:06;;;;;;;5.33;2.97;;;;;;;;;;5071893;28;20450;-77
2021/11/02 16:13:33;;;;;;;5.23;4.13;;;;;;;;;;5073398;28;20439;-77
2021/11/02 16:16:01;;;;;;;8.57;4.20;;;;;;;;;;5073246;28;20534;-76
2021/11/02 16:18:29;;;;;;;5.00;3.57;;;;;;;;;;5072972;28;20929;-77
2021/11/02 16:20:58;;;;;;;7.20;3.93;;;;;;;;;;5073438;28;20447;-77
2021/11/02 16:23:26;;;;;;;8.87;4.30;;;;;;;;;;5072980;28;20491;-77
2021/11/02 16:25:56;;;;;;;6.00;4.27;;;;;;;;;;5073305;28;20956;-76
2021/11/02 16:28:24;;;;;;;6.53;4.00;;;;;;;;;;5073316;28;20566;-76
2021/11/02 16:30:53;;;;;;;7.90;5.20;;;;;;;;;;5072480;28;21009;-77
2021/11/02 16:33:31;;;;;;;6.50;4.37;;;;;;;;;;5072732;28;20451;-78
2021/11/02 16:35:58;;;;;;;4.50;3.90;;;;;;;;;;5073147;28;20425;-76
2021/11/02 16:38:27;;;;;;;4.97;3.90;;;;;;;;;;5072746;28;20496;-77
2021/11/02 16:40:57;;;;;;;6.10;4.20;;;;;;;;;;5071475;28;20544;-77
2021/11/02 16:43:25;;;;;;;7.83;4.60;;;;;;;;;;5072016;28;20444;-77
2021/11/02 16:45:52;;;;;;;7.90;4.80;;;;;;;;;;5072826;28;20452;-76
2021/11/02 16:48:20;;;;;;;6.33;4.20;;;;;;;;;;5073187;28;20443;-77
2021/11/02 16:50:53;;;;;;;6.07;4.50;;;;;;;;;;5073173;28;20476;-75
2021/11/02 16:53:24;;;;;;;12.33;7.17;;;;;;;;;;5072361;28;20469;-77
2021/11/02 16:55:51;;;;;;;7.53;4.50;;;;;;;;;;5072982;28;20777;-77
2021/11/02 16:58:31;;;;;;;6.77;4.90;;;;;;;;;;5072990;28;20541;-77
2021/11/02 17:01:12;;;;;;;12.07;6.80;;;;;;;;;;5073035;28;20995;-77
2021/11/02 17:03:40;;;;;;;7.43;4.97;;;;;;;;;;5072556;28;20436;-78
2021/11/02 17:06:11;;;;;;;10.83;4.90;;;;;;;;;;5073053;28;20452;-78
2021/11/02 17:08:38;;;;;;;5.10;4.67;;;;;;;;;;5073174;28;20468;-77
2021/11/02 17:11:06;;;;;;;6.57;4.90;;;;;;;;;;5070421;28;20436;-77
2021/11/02 17:13:38;;;;;;;10.30;4.63;;;;;;;;;;5072775;28;20479;-76
2021/11/02 17:16:15;;;;;;;11.10;5.93;;;;;;;;;;5072785;28;20486;-77
2021/11/02 17:18:45;;;;;;;7.30;5.23;;;;;;;;;;5073627;28;20819;-77
2021/11/02 17:21:13;;;;;;;5.77;5.13;;;;;;;;;;5072744;28;20531;-76
2021/11/02 17:23:42;;;;;;;10.80;4.90;;;;;;;;;;5072015;28;20448;-78
2021/11/02 17:26:10;;;;;;;6.43;3.80;;;;;;;;;;5072623;28;20444;-77
2021/11/02 17:28:39;;;;;;;4.57;4.17;;;;;;;;;;5073049;28;20472;-80
2021/11/02 17:31:07;;;;;;;3.60;3.27;;;;;;;;;;5076261;28;21000;-77
2021/11/02 17:33:34;;;;;;;3.37;3.07;;;;;;;;;;5076160;28;20854;-77
2021/11/02 17:36:02;;;;;;;5.23;3.30;;;;;;;;;;5076467;28;20956;-78
2021/11/02 17:38:29;;;;;;;3.60;3.30;;;;;;;;;;5076469;28;20499;-77
2021/11/02 17:40:57;;;;;;;4.27;3.33;;;;;;;;;;5074609;28;20864;-77
2021/11/02 17:43:26;;;;;;;4.27;3.20;;;;;;;;;;5076184;28;20443;-77
2021/11/02 17:45:55;;;;;;;4.83;3.03;;;;;;;;;;5075872;28;20440;-78
2021/11/02 17:48:23;;;;;;;2.80;2.60;;;;;;;;;;5076351;28;20519;-77
2021/11/02 17:50:51;;;;;;;3.30;2.57;;;;;;;;;;5076221;28;20440;-78
2021/11/02 17:53:19;;;;;;;10.43;4.30;;;;;;;;;;5075837;28;20503;-76
2021/11/02 17:55:47;;;;;;;2.70;2.50;;;;;;;;;;5076188;28;20523;-77
2021/11/02 17:58:15;;;;;;;2.67;2.50;;;;;;;;;;5075562;28;20442;-77
2021/11/02 18:00:43;;;;;;;6.83;3.57;;;;;;;;;;5076043;28;20855;-78
2021/11/02 18:03:12;;;;;;;4.60;2.93;;;;;;;;;;5075813;28;20440;-78
2021/11/02 18:05:39;;;;;;;2.93;2.73;;;;;;;;;;5075959;28;20524;-78
2021/11/02 18:08:07;;;;;;;3.13;2.90;;;;;;;;;;5075847;28;20533;-77
2021/11/02 18:10:35;;;;;;;2.90;2.47;;;;;;;;;;5075636;28;20476;-78
2021/11/02 18:13:06;;;;;;;2.70;2.00;;;;;;;;;;5073300;28;20525;-76
2021/11/02 18:15:33;;;;;;;4.30;3.67;;;;;;;;;;5075250;28;20971;-77
2021/11/02 18:18:05;;;;;;;3.30;2.83;;;;;;;;;;5075955;28;20440;-77
2021/11/02 18:20:34;;;;;;;5.27;4.50;;;;;;;;;;5075865;28;20755;-77
2021/11/02 18:23:02;;;;;;;3.03;2.33;;;;;;;;;;5075645;28;20986;-77
2021/11/02 18:25:30;;;;;;;4.57;3.33;;;;;;;;;;5075709;28;20444;-77
2021/11/02 18:27:57;;;;;;;3.40;2.70;;;;;;;;;;5075525;28;20455;-77
2021/11/02 18:30:25;;;;;;;3.27;2.97;;;;;;;;;;5075421;28;20475;-78
2021/11/02 18:32:53;;;;;;;3.37;3.07;;;;;;;;;;5075142;28;20483;-77
2021/11/02 18:35:20;;;;;;;7.90;4.20;;;;;;;;;;5075686;28;20513;-76
2021/11/02 18:37:49;;;;;;;3.33;2.70;;;;;;;;;;5075888;28;20585;-76
2021/11/02 18:40:17;;;;;;;3.97;3.60;;;;;;;;;;5075163;28;20479;-76
2021/11/02 18:42:45;;;;;;;4.17;3.80;;;;;;;;;;5073175;28;20464;-77
2021/11/02 18:45:12;;;;;;;4.17;3.50;;;;;;;;;;5075090;28;20526;-76
2021/11/02 18:47:40;;;;;;;5.77;3.40;;;;;;;;;;5075455;28;20515;-77
2021/11/02 18:50:08;;;;;;;4.40;3.70;;;;;;;;;;5075102;28;21000;-78
2021/11/02 18:52:41;;;;;;;5.10;4.70;;;;;;;;;;5075189;28;20569;-77
2021/11/02 18:55:10;;;;;;;5.20;4.77;;;;;;;;;;5074719;28;20417;-77
2021/11/02 18:57:39;;;;;;;6.87;4.60;;;;;;;;;;5074830;28;20480;-76
2021/11/02 19:00:08;;;;;;;7.50;6.73;;;;;;;;;;5075099;28;20896;-76
2021/11/02 19:02:35;;;;;;;11.70;6.00;;;;;;;;;;5075170;28;20494;-76
2021/11/02 19:05:03;;;;;;;5.83;5.23;;;;;;;;;;5074906;28;20527;-77
2021/11/02 19:07:30;;;;;;;7.40;6.70;;;;;;;;;;5074886;28;20979;-78
2021/11/02 19:09:57;;;;;;;8.93;6.97;;;;;;;;;;5074412;28;20568;-78